Time;durP1;ratioP1;P1;durP2;ratioP2;P2;SDS_P1;SDS_P2;PMS_P1;PMS_P2;Temp;Humidity;BMP_temperature;BMP_pressure;BME280_temperature;BME280_humidity;BME280_pressure;Samples;Min_cycle;Max_cycle;Signal;HPM_P1;HPM_P2
2022/04/12 00:01:09;;;;;;;3.77;3.40;;;7.60;86.60;;;;;;5046527;28;20483;-46
2022/04/12 00:03:36;;;;;;;11.30;4.47;;;7.60;86.60;;;;;;5045575;28;20484;-46
2022/04/12 00:06:04;;;;;;;5.17;4.17;;;7.50;86.80;;;;;;5043701;28;20488;-46
2022/04/12 00:08:31;;;;;;;8.90;4.37;;;7.50;86.50;;;;;;5046010;28;20485;-47
2022/04/12 00:10:58;;;;;;;24.53;4.80;;;7.50;86.90;;;;;;5047620;28;20490;-46
2022/04/12 00:13:25;;;;;;;6.23;4.27;;;7.50;87.00;;;;;;5045328;28;20574;-46
2022/04/12 00:15:52;;;;;;;4.93;4.40;;;7.50;87.10;;;;;;5042508;28;20534;-47
2022/04/12 00:21:04;;;;;;;4.70;4.30;;;7.60;86.60;;;;;;5071852;28;20499;-47
2022/04/12 00:23:31;;;;;;;11.10;3.87;;;7.60;86.80;;;;;;5046856;28;20539;-46
2022/04/12 00:25:58;;;;;;;5.60;4.40;;;7.50;86.50;;;;;;5041971;28;20488;-47
2022/04/12 00:28:26;;;;;;;5.50;4.70;;;7.50;87.00;;;;;;5047336;28;20639;-45
2022/04/12 00:30:53;;;;;;;5.87;4.40;;;7.50;87.30;;;;;;5046279;28;20489;-46
2022/04/12 00:33:20;;;;;;;7.50;4.23;;;7.50;87.40;;;;;;5044184;28;20482;-46
2022/04/12 00:35:47;;;;;;;6.33;4.60;;;7.50;87.60;;;;;;5041388;28;20488;-46
2022/04/12 00:38:18;;;;;;;6.20;5.33;;;7.40;87.80;;;;;;5047014;28;20481;-46
2022/04/12 00:40:45;;;;;;;4.20;3.60;;;7.40;87.70;;;;;;5044892;28;20516;-46
2022/04/12 00:43:12;;;;;;;5.43;3.70;;;7.30;87.90;;;;;;5048332;28;20483;-46
2022/04/12 00:45:39;;;;;;;5.53;4.90;;;7.30;88.00;;;;;;5042412;28;20509;-46
2022/04/12 00:48:06;;;;;;;4.20;3.80;;;7.20;87.60;;;;;;5048199;28;20485;-47
2022/04/12 00:50:33;;;;;;;5.80;3.93;;;7.20;87.70;;;;;;5064940;28;20923;-46
2022/04/12 00:53:00;;;;;;;5.33;4.57;;;7.20;88.40;;;;;;5044399;28;20488;-47
2022/04/12 00:55:29;;;;;;;5.53;4.90;;;7.20;88.40;;;;;;5050096;28;21033;-47
2022/04/12 00:57:56;;;;;;;12.33;4.27;;;7.20;88.80;;;;;;5059366;28;20485;-47
2022/04/12 01:00:24;;;;;;;10.00;4.87;;;7.20;88.30;;;;;;5045280;28;20490;-47
2022/04/12 01:02:51;;;;;;;6.80;4.27;;;7.20;88.40;;;;;;5053240;28;20584;-46
2022/04/12 01:05:17;;;;;;;5.67;4.90;;;7.00;88.40;;;;;;5056236;28;20848;-46
2022/04/12 01:07:45;;;;;;;13.00;4.70;;;6.90;89.50;;;;;;5045541;28;20482;-45
2022/04/12 01:10:11;;;;;;;4.60;4.20;;;6.90;89.50;;;;;;5045721;28;20899;-45
2022/04/12 01:12:39;;;;;;;4.67;4.20;;;6.90;89.20;;;;;;5043409;28;20473;-45
2022/04/12 01:15:14;;;;;;;11.30;5.10;;;6.90;89.20;;;;;;5040416;28;20544;-45
2022/04/12 01:17:41;;;;;;;5.80;5.07;;;6.90;89.50;;;;;;5062995;28;20759;-46
2022/04/12 01:20:09;;;;;;;6.67;4.80;;;;;;;;;;5041147;28;20488;-46
2022/04/12 01:22:43;;;;;;;8.70;5.00;;;6.80;89.00;;;;;;5046368;28;20542;-45
2022/04/12 01:25:11;;;;;;;8.30;4.30;;;6.70;89.70;;;;;;5039720;28;20944;-46
2022/04/12 01:27:38;;;;;;;5.07;4.57;;;6.80;89.70;;;;;;5047936;28;20925;-46
2022/04/12 01:30:06;;;;;;;4.83;4.30;;;6.80;90.10;;;;;;5048502;28;20483;-46
2022/04/12 01:32:33;;;;;;;3.80;3.40;;;6.70;89.80;;;;;;5047824;28;20493;-46
2022/04/12 01:34:59;;;;;;;7.77;4.70;;;6.70;89.50;;;;;;5046114;28;20515;-46
2022/04/12 01:37:26;;;;;;;6.33;5.50;;;6.70;90.20;;;;;;5048163;28;20994;-46
2022/04/12 01:39:53;;;;;;;6.60;4.80;;;6.60;90.20;;;;;;5070133;28;20478;-46
2022/04/12 01:42:20;;;;;;;6.90;5.50;;;6.60;90.60;;;;;;5047954;28;20482;-46
2022/04/12 01:44:47;;;;;;;5.03;4.60;;;6.60;90.50;;;;;;5043260;28;20542;-51
2022/04/12 01:47:15;;;;;;;5.53;4.43;;;6.60;90.50;;;;;;5048541;28;20517;-46
2022/04/12 01:49:42;;;;;;;4.27;3.93;;;6.70;90.20;;;;;;5049826;28;20847;-46
2022/04/12 01:52:10;;;;;;;4.50;4.10;;;6.70;90.20;;;;;;5048047;28;20485;-46
2022/04/12 01:54:37;;;;;;;4.93;4.50;;;6.70;90.00;;;;;;5046807;28;20586;-46
2022/04/12 01:57:04;;;;;;;14.60;4.80;;;6.80;89.80;;;;;;5050043;28;20487;-46
2022/04/12 01:59:32;;;;;;;6.77;4.57;;;6.80;89.50;;;;;;5058038;28;20544;-46
2022/04/12 02:01:59;;;;;;;7.30;5.30;;;6.80;89.40;;;;;;5050969;28;20504;-46
2022/04/12 02:04:25;;;;;;;9.33;5.27;;;6.70;89.80;;;;;;5074535;28;20483;-46
2022/04/12 02:06:52;;;;;;;7.00;5.20;;;6.80;89.30;;;;;;5049062;28;20706;-46
2022/04/12 02:09:19;;;;;;;6.30;5.10;;;6.70;89.90;;;;;;5047509;28;20479;-47
2022/04/12 02:11:45;;;;;;;15.70;5.40;;;6.70;89.70;;;;;;5048155;28;20469;-46
2022/04/12 02:14:12;;;;;;;5.90;5.30;;;6.70;89.80;;;;;;5045195;28;20481;-46
2022/04/12 02:16:40;;;;;;;7.60;5.20;;;6.60;89.60;;;;;;5049478;28;20937;-46
2022/04/12 02:19:07;;;;;;;16.50;5.50;;;6.60;89.90;;;;;;5047888;28;21017;-46
2022/04/12 02:21:33;;;;;;;5.83;4.93;;;6.60;89.50;;;;;;5045446;28;21014;-46
2022/04/12 02:24:00;;;;;;;5.07;4.37;;;6.60;89.20;;;;;;5046109;28;20706;-46
2022/04/12 02:26:27;;;;;;;5.13;4.63;;;6.60;88.90;;;;;;5045967;28;20482;-46
2022/04/12 02:28:53;;;;;;;4.87;4.10;;;6.60;88.70;;;;;;5040521;28;20469;-46
2022/04/12 02:31:20;;;;;;;5.90;5.30;;;6.60;89.30;;;;;;5035185;28;20502;-48
2022/04/12 02:33:48;;;;;;;6.10;4.30;;;6.50;89.60;;;;;;5048478;28;20471;-46
2022/04/12 02:36:14;;;;;;;5.30;4.80;;;6.60;89.20;;;;;;5028724;28;20765;-45
2022/04/12 02:38:41;;;;;;;4.50;4.07;;;6.50;88.90;;;;;;5043413;28;20891;-46
2022/04/12 02:41:08;;;;;;;5.03;4.47;;;6.40;89.40;;;;;;5046822;28;20497;-45
2022/04/12 02:43:34;;;;;;;4.50;4.10;;;6.50;89.80;;;;;;5047600;28;20492;-45
2022/04/12 02:46:02;;;;;;;4.80;3.87;;;6.50;89.60;;;;;;5050684;28;20475;-45
2022/04/12 02:48:28;;;;;;;5.60;5.00;;;6.50;89.30;;;;;;5048641;28;20520;-46
2022/04/12 02:50:56;;;;;;;6.83;6.13;;;6.30;89.30;;;;;;5041701;28;20525;-45
2022/04/12 02:53:23;;;;;;;7.60;5.80;;;6.20;89.40;;;;;;5051412;28;20555;-46
2022/04/12 02:55:50;;;;;;;6.00;5.50;;;6.20;90.10;;;;;;5029697;28;20926;-46
2022/04/12 02:58:17;;;;;;;10.60;4.77;;;6.10;90.30;;;;;;5048289;28;20478;-45
2022/04/12 03:00:44;;;;;;;7.30;5.13;;;6.10;90.40;;;;;;5034768;28;20878;-45
2022/04/12 03:03:11;;;;;;;4.23;3.87;;;6.00;90.40;;;;;;5031282;28;21128;-45
2022/04/12 03:05:38;;;;;;;5.80;5.20;;;6.00;90.70;;;;;;5053687;28;20487;-45
2022/04/12 03:08:07;;;;;;;4.40;3.70;;;5.90;90.90;;;;;;5051808;28;20917;-45
2022/04/12 03:10:33;;;;;;;14.20;4.00;;;5.80;91.10;;;;;;5038285;28;20991;-45
2022/04/12 03:13:00;;;;;;;4.60;4.20;;;5.80;91.60;;;;;;5046679;28;20504;-46
2022/04/12 03:15:27;;;;;;;5.90;4.83;;;5.80;91.60;;;;;;5045871;28;20583;-46
2022/04/12 03:17:54;;;;;;;5.27;4.80;;;5.80;91.50;;;;;;5047173;28;20489;-47
2022/04/12 03:20:20;;;;;;;5.13;4.03;;;5.90;91.50;;;;;;5043184;28;20511;-46
2022/04/12 03:22:47;;;;;;;4.17;3.67;;;6.00;91.30;;;;;;5047260;28;20471;-46
2022/04/12 03:25:15;;;;;;;8.27;3.90;;;5.90;91.20;;;;;;5041217;28;20478;-46
2022/04/12 03:27:42;;;;;;;4.87;3.57;;;6.00;91.20;;;;;;5053257;28;20476;-46
2022/04/12 03:30:10;;;;;;;8.50;4.57;;;5.90;91.50;;;;;;5045005;28;20843;-46
2022/04/12 03:32:36;;;;;;;14.80;4.80;;;6.00;91.60;;;;;;5048717;28;20711;-46
2022/04/12 03:35:04;;;;;;;4.93;4.27;;;6.10;91.60;;;;;;5044875;28;20488;-46
2022/04/12 03:37:30;;;;;;;9.37;5.30;;;6.10;91.40;;;;;;5046394;28;20489;-46
2022/04/12 03:39:57;;;;;;;6.37;5.00;;;6.10;91.60;;;;;;5047755;28;20487;-46
2022/04/12 03:42:25;;;;;;;5.43;4.83;;;6.20;91.60;;;;;;5046792;28;20956;-45
2022/04/12 03:44:52;;;;;;;4.80;4.40;;;6.10;91.40;;;;;;5019077;28;20484;-45
2022/04/12 03:47:18;;;;;;;11.87;4.77;;;6.10;91.80;;;;;;5046844;28;20480;-45
2022/04/12 03:49:45;;;;;;;6.67;5.70;;;6.20;92.10;;;;;;5043265;28;20945;-46
2022/04/12 03:52:12;;;;;;;4.67;4.27;;;6.20;91.90;;;;;;5048668;28;20789;-45
2022/04/12 03:54:38;;;;;;;6.83;5.50;;;6.10;92.00;;;;;;5043478;28;20858;-46
2022/04/12 03:57:06;;;;;;;4.50;4.10;;;6.20;92.10;;;;;;5047019;28;20591;-46
2022/04/12 03:59:34;;;;;;;4.87;4.00;;;6.30;91.70;;;;;;5047305;28;20476;-46
2022/04/12 04:02:00;;;;;;;15.13;5.20;;;6.30;91.50;;;;;;5039460;28;20487;-46
2022/04/12 04:04:27;;;;;;;5.67;4.67;;;6.40;91.50;;;;;;5041181;28;20567;-46
2022/04/12 04:06:54;;;;;;;4.40;4.00;;;6.40;91.60;;;;;;5046562;28;20483;-46
2022/04/12 04:09:21;;;;;;;7.70;4.83;;;6.50;91.40;;;;;;5045220;28;20535;-45
2022/04/12 04:11:48;;;;;;;5.80;5.00;;;6.60;91.30;;;;;;5049144;28;20548;-45
2022/04/12 04:14:15;;;;;;;5.40;4.70;;;6.60;91.30;;;;;;5042006;28;20875;-45
2022/04/12 04:16:43;;;;;;;5.30;4.43;;;6.60;91.40;;;;;;5039218;28;20484;-46
2022/04/12 04:19:10;;;;;;;6.80;5.50;;;6.60;91.40;;;;;;5057208;28;20479;-46
2022/04/12 04:21:37;;;;;;;7.20;5.20;;;6.60;91.40;;;;;;5058086;28;20561;-46
2022/04/12 04:24:04;;;;;;;12.43;5.43;;;6.70;91.20;;;;;;5041604;28;20989;-46
2022/04/12 04:26:32;;;;;;;10.00;5.53;;;6.70;91.00;;;;;;5044370;28;20503;-47
2022/04/12 04:28:58;;;;;;;7.47;5.17;;;6.80;91.10;;;;;;5045992;28;20477;-46
2022/04/12 04:31:25;;;;;;;8.13;5.20;;;6.80;91.00;;;;;;5044525;28;20481;-46
2022/04/12 04:33:53;;;;;;;9.00;5.70;;;6.80;91.10;;;;;;5043780;28;20485;-46
2022/04/12 04:36:19;;;;;;;8.80;5.97;;;6.90;91.20;;;;;;5043304;28;20532;-46
2022/04/12 04:38:46;;;;;;;7.00;5.20;;;6.80;91.00;;;;;;5045129;28;20614;-46
2022/04/12 04:41:13;;;;;;;6.10;4.47;;;6.80;90.90;;;;;;5045629;28;20491;-46
2022/04/12 04:43:40;;;;;;;5.83;4.63;;;6.80;91.10;;;;;;5066438;28;20488;-45
2022/04/12 04:46:07;;;;;;;16.27;5.27;;;6.80;91.00;;;;;;5041468;28;20491;-45
2022/04/12 04:48:33;;;;;;;5.60;4.23;;;6.80;91.00;;;;;;5047432;28;20789;-46
2022/04/12 04:51:01;;;;;;;6.17;5.57;;;6.70;91.10;;;;;;5046832;28;20486;-46
2022/04/12 04:53:28;;;;;;;14.77;5.57;;;6.50;91.70;;;;;;5046238;28;21047;-46
2022/04/12 04:55:55;;;;;;;4.90;4.50;;;6.50;91.60;;;;;;5029405;28;20796;-45
2022/04/12 04:58:22;;;;;;;5.70;5.10;;;6.60;91.50;;;;;;5043336;28;20902;-45
2022/04/12 05:00:48;;;;;;;13.67;5.57;;;6.60;91.60;;;;;;5046653;28;20489;-46
2022/04/12 05:03:15;;;;;;;6.90;4.40;;;6.60;91.60;;;;;;5042589;28;21009;-45
2022/04/12 05:05:42;;;;;;;7.23;5.03;;;6.60;91.60;;;;;;5043626;28;20489;-45
2022/04/12 05:08:10;;;;;;;8.83;5.03;;;6.50;91.70;;;;;;5044219;28;20508;-45
2022/04/12 05:10:36;;;;;;;4.87;4.37;;;6.50;91.70;;;;;;5043451;28;21233;-46
2022/04/12 05:13:04;;;;;;;5.80;4.70;;;6.60;91.60;;;;;;5044356;28;20481;-46
2022/04/12 05:15:30;;;;;;;13.90;5.57;;;6.70;91.50;;;;;;5042007;28;20489;-46
2022/04/12 05:17:57;;;;;;;7.20;5.43;;;6.50;91.60;;;;;;5044349;28;21154;-45
2022/04/12 05:20:26;;;;;;;5.20;4.70;;;6.40;92.10;;;;;;5025947;28;20482;-46
2022/04/12 05:22:54;;;;;;;7.70;5.73;;;6.50;92.10;;;;;;5042147;28;20925;-45
2022/04/12 05:25:22;;;;;;;8.90;5.50;;;6.60;92.10;;;;;;5039484;28;20955;-46
2022/04/12 05:27:49;;;;;;;8.00;4.50;;;6.60;92.00;;;;;;5042610;28;20474;-46
2022/04/12 05:30:17;;;;;;;6.57;5.10;;;6.70;91.90;;;;;;5040455;28;20849;-47
2022/04/12 05:32:43;;;;;;;5.13;4.63;;;6.80;91.90;;;;;;5030638;28;20579;-46
2022/04/12 05:35:12;;;;;;;6.97;6.27;;;6.90;91.80;;;;;;5037584;28;21144;-46
2022/04/12 05:37:43;;;;;;;18.73;12.13;;;7.00;91.80;;;;;;5043217;28;20480;-47
2022/04/12 05:40:11;;;;;;;10.60;7.60;;;7.10;91.80;;;;;;5043391;28;20987;-46
2022/04/12 05:42:40;;;;;;;9.97;7.30;;;;;;;;;;5043772;28;20483;-46
2022/04/12 05:45:07;;;;;;;22.70;13.73;;;7.30;92.00;;;;;;5043536;28;20472;-46
2022/04/12 05:47:44;;;;;;;12.33;8.47;;;7.40;92.20;;;;;;5045998;28;20503;-46
2022/04/12 05:50:12;;;;;;;15.70;9.93;;;7.50;92.30;;;;;;5043230;28;21055;-46
2022/04/12 05:52:39;;;;;;;13.10;8.80;;;7.60;92.40;;;;;;5030611;28;21063;-47
2022/04/12 05:55:08;;;;;;;9.87;7.97;;;7.70;92.30;;;;;;5052117;28;20569;-46
2022/04/12 05:57:37;;;;;;;10.80;8.13;;;8.00;92.60;;;;;;5022930;28;20505;-47
2022/04/12 06:00:07;;;;;;;15.03;7.37;;;8.20;92.60;;;;;;5024361;28;20482;-47
2022/04/12 06:02:34;;;;;;;8.80;7.07;;;8.40;92.80;;;;;;5024248;28;20605;-47
2022/04/12 06:05:01;;;;;;;9.97;6.80;;;8.90;92.80;;;;;;5020551;28;20486;-47
2022/04/12 06:07:31;;;;;;;13.03;6.10;;;9.20;92.50;;;;;;5023712;28;20485;-46
2022/04/12 06:09:59;;;;;;;7.13;6.10;;;9.60;92.00;;;;;;5044533;28;20474;-46
2022/04/12 06:12:25;;;;;;;7.47;5.77;;;9.70;91.70;;;;;;5066222;28;20482;-46
2022/04/12 06:14:52;;;;;;;28.33;7.57;;;9.90;91.70;;;;;;5042914;28;21051;-47
2022/04/12 06:17:20;;;;;;;9.23;8.23;;;10.10;91.10;;;;;;5046465;28;20493;-47
2022/04/12 06:19:47;;;;;;;7.23;6.30;;;10.30;91.00;;;;;;5024789;28;20545;-46
2022/04/12 06:22:13;;;;;;;6.23;5.63;;;10.40;91.20;;;;;;5018098;28;21089;-47
2022/04/12 06:24:41;;;;;;;8.77;6.00;;;10.90;90.50;;;;;;5050255;28;20492;-47
2022/04/12 06:27:08;;;;;;;6.60;5.80;;;11.00;90.40;;;;;;5043859;28;20473;-47
2022/04/12 06:29:34;;;;;;;9.43;6.20;;;11.20;90.40;;;;;;5033112;28;20884;-47
2022/04/12 06:32:01;;;;;;;7.77;5.80;;;11.50;90.30;;;;;;5025534;28;20475;-47
2022/04/12 06:34:29;;;;;;;6.80;6.10;;;11.70;89.60;;;;;;5022627;28;20478;-47
2022/04/12 06:36:56;;;;;;;10.07;5.77;;;11.90;89.60;;;;;;5028333;28;20648;-47
2022/04/12 06:39:23;;;;;;;6.00;5.40;;;12.00;88.50;;;;;;5020012;28;20543;-47
2022/04/12 06:41:50;;;;;;;6.00;5.40;;;12.10;88.10;;;;;;5035525;28;20476;-47
2022/04/12 06:44:16;;;;;;;10.80;5.60;;;12.10;88.80;;;;;;5024444;28;20489;-47
2022/04/12 06:46:43;;;;;;;8.80;6.30;;;12.30;88.00;;;;;;5026536;28;20488;-48
2022/04/12 06:49:10;;;;;;;7.63;6.30;;;12.30;87.80;;;;;;5026400;28;20487;-46
2022/04/12 06:51:38;;;;;;;7.20;5.53;;;12.40;88.30;;;;;;5028274;28;21216;-47
2022/04/12 06:54:04;;;;;;;8.40;6.60;;;12.70;88.80;;;;;;5019862;28;20474;-46
2022/04/12 06:56:31;;;;;;;5.93;5.43;;;13.00;88.60;;;;;;5048643;28;20476;-46
2022/04/12 06:58:58;;;;;;;6.87;6.17;;;13.20;89.20;;;;;;5044333;28;20498;-46
2022/04/12 07:01:25;;;;;;;6.37;5.77;;;;;;;;;;5044905;28;20821;-46
2022/04/12 07:03:51;;;;;;;6.83;5.50;;;14.10;89.10;;;;;;5046930;28;20480;-46
2022/04/12 07:06:18;;;;;;;7.40;6.03;;;14.40;89.20;;;;;;5047191;28;20544;-47
2022/04/12 07:08:46;;;;;;;11.10;6.63;;;14.80;87.90;;;;;;5032342;28;20517;-47
2022/04/12 07:11:13;;;;;;;6.30;5.80;;;15.10;86.50;;;;;;5025190;28;20756;-47
2022/04/12 07:13:39;;;;;;;7.60;5.27;;;15.20;85.80;;;;;;5025835;28;20925;-47
2022/04/12 07:16:06;;;;;;;8.47;5.90;;;15.50;85.70;;;;;;5013838;28;21078;-47
2022/04/12 07:18:33;;;;;;;7.10;5.70;;;15.80;86.80;;;;;;5025148;28;20481;-47
2022/04/12 07:20:59;;;;;;;6.33;5.73;;;16.00;86.80;;;;;;5027853;28;20494;-47
2022/04/12 07:23:26;;;;;;;9.70;5.20;;;16.30;85.70;;;;;;5021037;28;20490;-47
2022/04/12 07:25:54;;;;;;;11.60;5.60;;;16.50;85.10;;;;;;5016999;28;20479;-47
2022/04/12 07:28:21;;;;;;;5.17;4.77;;;16.60;84.90;;;;;;5020325;28;20813;-48
2022/04/12 07:30:47;;;;;;;9.37;6.63;;;16.70;85.20;;;;;;5030773;28;20792;-47
2022/04/12 07:33:14;;;;;;;5.40;4.90;;;16.80;83.50;;;;;;5010763;28;20485;-48
2022/04/12 07:35:41;;;;;;;8.13;5.07;;;16.90;84.90;;;;;;5014154;28;20818;-50
2022/04/12 07:38:08;;;;;;;8.07;5.90;;;16.90;84.60;;;;;;5023949;28;21062;-48
2022/04/12 07:40:35;;;;;;;11.00;6.10;;;16.90;83.60;;;;;;5024606;28;20479;-48
2022/04/12 07:43:03;;;;;;;5.70;5.13;;;16.90;83.60;;;;;;5029832;28;20473;-46
2022/04/12 07:45:30;;;;;;;8.97;5.37;;;;;;;;;;5028587;28;20568;-46
2022/04/12 07:47:57;;;;;;;5.70;5.10;;;16.80;83.90;;;;;;5040934;28;20529;-46
2022/04/12 07:50:23;;;;;;;5.70;5.13;;;16.70;84.10;;;;;;5039091;28;21370;-46
2022/04/12 07:52:50;;;;;;;6.30;5.00;;;16.60;84.60;;;;;;5048206;28;20941;-47
2022/04/12 07:55:17;;;;;;;6.37;5.33;;;16.60;85.40;;;;;;5041950;28;20845;-46
2022/04/12 07:57:43;;;;;;;6.07;4.93;;;16.60;84.60;;;;;;5044051;28;20515;-47
2022/04/12 08:00:13;;;;;;;7.13;5.90;;;;;;;;;;5044274;28;20908;-46
2022/04/12 08:02:40;;;;;;;7.70;5.47;;;16.50;84.20;;;;;;5047830;28;20578;-46
2022/04/12 08:05:07;;;;;;;11.63;5.00;;;16.50;83.90;;;;;;5037041;28;20483;-47
2022/04/12 08:07:34;;;;;;;25.23;5.80;;;;;;;;;;5042247;28;20483;-47
2022/04/12 08:10:01;;;;;;;6.90;4.80;;;16.60;84.70;;;;;;5038598;28;20547;-48
2022/04/12 08:12:28;;;;;;;6.10;4.57;;;16.80;85.50;;;;;;5041196;28;20538;-47
2022/04/12 08:14:55;;;;;;;5.80;5.20;;;;;;;;;;5040183;28;20981;-47
2022/04/12 08:17:23;;;;;;;6.00;4.33;;;17.20;84.90;;;;;;5045575;28;20486;-47
2022/04/12 08:19:49;;;;;;;7.27;4.70;;;17.40;83.00;;;;;;5047381;28;20481;-47
2022/04/12 08:22:16;;;;;;;7.83;4.83;;;17.80;85.20;;;;;;5017929;28;20478;-48
2022/04/12 08:24:42;;;;;;;4.40;4.07;;;18.00;84.40;;;;;;5021503;28;20494;-46
2022/04/12 08:27:09;;;;;;;5.73;4.53;;;18.30;83.00;;;;;;5025748;28;20486;-47
2022/04/12 08:29:36;;;;;;;5.17;4.70;;;;;;;;;;5016414;28;20483;-47
2022/04/12 08:32:03;;;;;;;5.23;4.73;;;18.90;82.10;;;;;;5023769;28;21016;-47
2022/04/12 08:34:31;;;;;;;5.70;4.80;;;19.20;81.30;;;;;;5021702;28;20884;-47
2022/04/12 08:36:58;;;;;;;5.73;4.27;;;19.50;80.30;;;;;;5026339;28;21003;-47
2022/04/12 08:39:24;;;;;;;8.77;4.93;;;19.70;77.70;;;;;;5018711;28;20487;-47
2022/04/12 08:41:52;;;;;;;5.20;4.37;;;19.90;79.40;;;;;;5024753;28;20483;-47
2022/04/12 08:44:19;;;;;;;5.10;4.60;;;20.10;75.90;;;;;;5027850;28;20968;-47
2022/04/12 08:46:47;;;;;;;4.33;3.93;;;20.20;74.10;;;;;;5027749;28;20475;-47
2022/04/12 08:49:15;;;;;;;3.47;3.17;;;20.00;66.60;;;;;;5041188;28;20463;-47
2022/04/12 08:51:46;;;;;;;5.07;3.90;;;19.90;71.80;;;;;;5044630;28;20997;-47
2022/04/12 08:54:13;;;;;;;3.30;3.00;;;20.00;70.80;;;;;;5040917;28;20568;-47
2022/04/12 08:56:40;;;;;;;5.10;3.83;;;20.10;70.30;;;;;;5042064;28;20475;-47
2022/04/12 08:59:06;;;;;;;14.00;3.30;;;20.30;71.20;;;;;;5044869;28;20470;-47
2022/04/12 09:01:33;;;;;;;3.90;2.50;;;20.20;63.20;;;;;;5044698;28;21017;-47
2022/04/12 09:04:00;;;;;;;3.57;2.40;;;20.10;65.00;;;;;;5042835;28;20480;-50
2022/04/12 09:06:27;;;;;;;3.47;2.10;;;20.10;65.20;;;;;;5044600;28;20893;-48
2022/04/12 09:08:55;;;;;;;4.07;2.53;;;19.90;62.90;;;;;;5042788;28;20471;-47
2022/04/12 09:11:22;;;;;;;6.17;3.23;;;19.90;64.70;;;;;;5041681;28;20494;-48
2022/04/12 09:14:07;;;;;;;13.10;3.40;;;19.90;65.20;;;;;;5039489;28;20479;-47
2022/04/12 09:16:35;;;;;;;3.90;2.53;;;20.00;62.60;;;;;;5043417;28;20475;-47
2022/04/12 09:19:02;;;;;;;3.83;2.80;;;19.80;62.30;;;;;;5035884;28;20471;-47
2022/04/12 09:21:30;;;;;;;16.23;3.73;;;20.00;66.10;;;;;;5040350;28;20495;-48
2022/04/12 09:24:01;;;;;;;4.40;2.70;;;19.90;64.40;;;;;;5040143;28;20471;-48
2022/04/12 09:26:29;;;;;;;13.60;2.83;;;20.10;63.40;;;;;;5038113;28;21046;-48
2022/04/12 09:29:00;;;;;;;6.40;3.60;;;20.10;65.50;;;;;;5042269;28;20478;-48
2022/04/12 09:31:26;;;;;;;7.77;2.60;;;20.00;64.00;;;;;;5044813;28;20479;-48
2022/04/12 09:33:54;;;;;;;7.70;3.30;;;20.10;61.40;;;;;;5036504;28;20486;-48
2022/04/12 09:36:21;;;;;;;3.30;2.27;;;20.00;62.40;;;;;;5046758;28;20449;-47
2022/04/12 09:38:55;;;;;;;2.83;2.43;;;20.00;62.60;;;;;;5033920;28;20470;-47
2022/04/12 09:41:24;;;;;;;5.47;2.50;;;20.00;62.10;;;;;;5038781;28;20506;-47
2022/04/12 09:44:08;;;;;;;2.60;2.40;;;19.90;62.60;;;;;;5043879;28;20502;-48
2022/04/12 09:46:36;;;;;;;5.00;2.37;;;20.00;62.10;;;;;;5044338;28;20478;-48
2022/04/12 09:49:03;;;;;;;6.53;2.30;;;20.20;63.10;;;;;;5049080;28;20482;-48
2022/04/12 09:51:30;;;;;;;3.03;2.07;;;20.50;64.30;;;;;;5048998;28;20488;-48
2022/04/12 09:53:57;;;;;;;3.60;1.90;;;20.80;66.70;;;;;;5046434;28;21000;-48
2022/04/12 09:56:27;;;;;;;2.10;1.87;;;20.90;63.60;;;;;;5044280;28;21417;-49
2022/04/12 09:58:56;;;;;;;4.83;2.40;;;21.00;61.60;;;;;;5049667;28;20482;-48
2022/04/12 10:01:24;;;;;;;3.47;2.60;;;21.10;64.50;;;;;;5046589;28;20478;-48
2022/04/12 10:03:52;;;;;;;3.27;2.20;;;21.20;62.60;;;;;;5046552;28;20479;-48
2022/04/12 10:06:20;;;;;;;12.23;2.57;;;21.60;64.80;;;;;;5069560;28;20479;-48
2022/04/12 10:08:52;;;;;;;2.33;1.80;;;21.70;66.20;;;;;;5042508;28;20983;-48
2022/04/12 10:11:20;;;;;;;4.37;1.97;;;21.90;68.00;;;;;;5064169;28;20495;-48
2022/04/12 10:13:48;;;;;;;6.23;1.90;;;21.90;61.30;;;;;;5047134;28;20551;-48
2022/04/12 10:16:16;;;;;;;2.63;2.13;;;22.00;62.70;;;;;;5044567;28;20897;-48
2022/04/12 10:18:43;;;;;;;2.13;1.93;;;22.00;61.60;;;;;;5042276;28;20509;-48
2022/04/12 10:21:12;;;;;;;9.00;2.27;;;22.20;60.70;;;;;;5037663;28;20489;-48
2022/04/12 10:23:41;;;;;;;2.50;2.20;;;22.10;60.80;;;;;;5045622;28;20845;-48
2022/04/12 10:26:09;;;;;;;3.30;1.87;;;22.00;59.70;;;;;;5045570;28;20756;-48
2022/04/12 10:28:37;;;;;;;3.40;2.60;;;22.20;60.00;;;;;;5045631;28;20477;-48
2022/04/12 10:31:20;;;;;;;2.87;1.97;;;22.10;60.50;;;;;;5045217;28;20772;-47
2022/04/12 10:34:09;;;;;;;4.43;1.80;;;22.30;61.50;;;;;;5045467;28;21041;-48
2022/04/12 10:36:59;;;;;;;2.20;1.80;;;22.40;62.00;;;;;;5045910;28;20486;-48
2022/04/12 10:39:38;;;;;;;6.33;1.90;;;22.50;62.50;;;;;;5037397;28;20482;-50
2022/04/12 10:42:11;;;;;;;5.50;1.87;;;22.60;59.20;;;;;;5040119;28;20493;-48
2022/04/12 10:44:45;;;;;;;2.97;2.00;;;22.50;58.80;;;;;;5052347;28;20538;-48
2022/04/12 10:47:29;;;;;;;2.43;2.23;;;22.50;60.90;;;;;;5041781;28;20543;-48
2022/04/12 10:49:59;;;;;;;2.20;1.70;;;22.60;61.30;;;;;;5013244;28;20846;-50
2022/04/12 10:52:44;;;;;;;2.80;1.63;;;22.70;61.00;;;;;;5026730;28;20454;-48
2022/04/12 10:55:13;;;;;;;2.80;2.00;;;22.60;58.20;;;;;;5038237;28;20453;-48
2022/04/12 10:57:40;;;;;;;4.27;2.90;;;22.70;62.10;;;;;;5048293;28;20830;-48
2022/04/12 11:00:10;;;;;;;3.33;1.93;;;22.70;58.90;;;;;;5045006;28;20848;-49
2022/04/12 11:02:40;;;;;;;3.90;2.10;;;22.60;58.90;;;;;;5049162;28;20460;-48
2022/04/12 11:05:29;;;;;;;9.00;2.63;;;22.80;61.10;;;;;;5037798;28;20536;-49
2022/04/12 11:07:56;;;;;;;2.63;2.10;;;23.00;60.30;;;;;;5046844;28;20484;-48
2022/04/12 11:10:24;;;;;;;3.20;1.50;;;23.20;60.50;;;;;;5044083;28;20484;-48
2022/04/12 11:13:05;;;;;;;2.30;1.77;;;23.30;61.50;;;;;;5047066;28;20460;-48
2022/04/12 11:15:33;;;;;;;2.53;1.60;;;23.50;62.40;;;;;;5040399;28;20489;-49
2022/04/12 11:18:10;;;;;;;3.27;1.83;;;23.70;60.60;;;;;;5066625;28;20472;-48
2022/04/12 11:20:38;;;;;;;2.20;1.70;;;23.90;59.40;;;;;;5016326;28;20467;-50
2022/04/12 11:23:10;;;;;;;12.43;2.10;;;24.10;63.50;;;;;;5018780;28;20472;-52
2022/04/12 11:25:46;;;;;;;2.40;1.90;;;24.00;64.20;;;;;;5025344;28;20468;-48
2022/04/12 11:28:15;;;;;;;14.93;2.37;;;24.00;59.40;;;;;;5042720;28;20484;-50
2022/04/12 11:30:42;;;;;;;4.33;2.00;;;24.00;61.30;;;;;;5043785;28;20947;-49
2022/04/12 11:33:10;;;;;;;2.80;1.70;;;23.90;61.10;;;;;;5042290;28;20462;-50
2022/04/12 11:35:39;;;;;;;9.83;2.30;;;24.00;58.50;;;;;;5023891;28;20524;-50
2022/04/12 11:38:06;;;;;;;4.37;1.90;;;24.00;62.20;;;;;;5036991;28;21014;-49
2022/04/12 11:40:33;;;;;;;3.40;2.07;;;23.90;59.80;;;;;;5044548;28;20559;-48
2022/04/12 11:42:59;;;;;;;7.00;1.77;;;23.70;57.70;;;;;;5044093;28;20912;-48
2022/04/12 11:45:33;;;;;;;2.27;2.07;;;23.70;59.10;;;;;;5045051;28;20457;-49
2022/04/12 11:48:00;;;;;;;4.43;1.80;;;23.80;59.70;;;;;;5045803;28;20449;-49
2022/04/12 11:50:28;;;;;;;8.43;1.80;;;24.00;59.90;;;;;;5061000;28;20450;-48
2022/04/12 11:52:55;;;;;;;4.20;1.87;;;23.90;58.80;;;;;;5039580;28;20462;-51
2022/04/12 11:55:22;;;;;;;3.17;1.73;;;24.10;59.60;;;;;;5030315;28;20479;-49
2022/04/12 11:57:50;;;;;;;9.90;2.27;;;24.00;57.30;;;;;;5039904;28;20528;-48
2022/04/12 12:00:17;;;;;;;4.23;1.77;;;24.10;62.80;;;;;;5037247;28;20467;-49
2022/04/12 12:02:44;;;;;;;2.83;1.73;;;24.00;60.50;;;;;;5045123;28;20783;-50
2022/04/12 12:05:13;;;;;;;2.43;1.90;;;24.10;57.70;;;;;;5036664;28;20464;-50
2022/04/12 12:07:42;;;;;;;4.53;2.00;;;24.20;59.90;;;;;;5017733;28;20494;-49
2022/04/12 12:10:11;;;;;;;4.40;1.97;;;24.10;56.90;;;;;;5022294;28;20478;-51
2022/04/12 12:12:39;;;;;;;5.73;2.13;;;23.90;56.00;;;;;;5021415;28;20737;-49
2022/04/12 12:15:16;;;;;;;3.17;1.73;;;;;;;;;;5020219;28;20488;-50
2022/04/12 12:17:45;;;;;;;27.20;3.37;;;24.10;58.10;;;;;;5027838;28;20452;-49
2022/04/12 12:20:12;;;;;;;3.23;1.83;;;24.20;60.40;;;;;;5037131;28;20544;-50
2022/04/12 12:22:43;;;;;;;4.43;1.93;;;23.90;56.40;;;;;;5043317;28;20457;-49
2022/04/12 12:25:18;;;;;;;2.97;1.83;;;24.00;58.90;;;;;;5037686;28;20488;-50
2022/04/12 12:27:49;;;;;;;2.33;1.57;;;24.20;56.10;;;;;;5042055;28;20506;-50
2022/04/12 12:30:18;;;;;;;4.80;1.33;;;24.20;57.20;;;;;;5036506;28;20483;-49
2022/04/12 12:32:45;;;;;;;3.80;2.07;;;24.40;59.00;;;;;;5017103;28;20990;-49
2022/04/12 12:35:13;;;;;;;4.00;1.50;;;24.40;57.20;;;;;;5014179;28;20848;-49
2022/04/12 12:37:44;;;;;;;5.43;1.60;;;24.40;58.30;;;;;;5022309;28;20457;-49
2022/04/12 12:40:19;;;;;;;4.37;1.80;;;24.50;55.50;;;;;;5026084;28;20457;-51
2022/04/12 12:42:46;;;;;;;12.50;2.40;;;24.40;54.50;;;;;;5036857;28;20489;-49
2022/04/12 12:45:14;;;;;;;3.67;1.83;;;24.20;54.40;;;;;;5031532;28;20467;-52
2022/04/12 12:47:42;;;;;;;4.80;2.13;;;24.10;56.90;;;;;;5037485;28;20532;-49
2022/04/12 12:50:11;;;;;;;5.20;2.47;;;24.30;59.80;;;;;;5022420;28;20482;-49
2022/04/12 12:52:39;;;;;;;4.43;1.60;;;24.30;58.70;;;;;;5012891;28;20459;-48
2022/04/12 12:55:09;;;;;;;6.00;1.90;;;24.00;56.50;;;;;;5015085;28;20477;-49
2022/04/12 12:57:37;;;;;;;3.90;1.30;;;24.30;55.20;;;;;;5021214;28;20557;-51
2022/04/12 13:00:06;;;;;;;4.90;1.70;;;24.00;56.40;;;;;;5020687;28;20492;-48